sensor_id;sensor_type;location;lat;lon;timestamp;temperature;humidity
13344;DHT22;6741;48.964;9.406;2023-05-16T00:00:40;9.10;99.90
13344;DHT22;6741;48.964;9.406;2023-05-16T00:03:07;9.00;99.90
13344;DHT22;6741;48.964;9.406;2023-05-16T00:05:36;9.00;99.90
13344;DHT22;6741;48.964;9.406;2023-05-16T00:08:05;9.00;99.90
13344;DHT22;6741;48.964;9.406;2023-05-16T00:10:32;9.10;99.90
13344;DHT22;6741;48.964;9.406;2023-05-16T00:12:58;9.10;99.90
13344;DHT22;6741;48.964;9.406;2023-05-16T00:15:26;9.20;99.90
13344;DHT22;6741;48.964;9.406;2023-05-16T00:17:54;9.10;99.90
13344;DHT22;6741;48.964;9.406;2023-05-16T00:20:23;9.10;99.90
13344;DHT22;6741;48.964;9.406;2023-05-16T00:22:50;9.10;99.90
13344;DHT22;6741;48.964;9.406;2023-05-16T00:25:18;9.10;99.90
13344;DHT22;6741;48.964;9.406;2023-05-16T00:27:45;9.10;99.90
13344;DHT22;6741;48.964;9.406;2023-05-16T00:30:12;9.00;99.90
13344;DHT22;6741;48.964;9.406;2023-05-16T00:32:39;9.00;99.90
13344;DHT22;6741;48.964;9.406;2023-05-16T00:35:07;9.00;99.90
13344;DHT22;6741;48.964;9.406;2023-05-16T00:37:35;9.00;99.90
13344;DHT22;6741;48.964;9.406;2023-05-16T00:40:03;9.00;99.90
13344;DHT22;6741;48.964;9.406;2023-05-16T00:42:31;9.00;99.90
13344;DHT22;6741;48.964;9.406;2023-05-16T00:44:59;9.00;99.90
13344;DHT22;6741;48.964;9.406;2023-05-16T00:47:25;8.90;99.90
13344;DHT22;6741;48.964;9.406;2023-05-16T00:49:52;8.80;99.90
13344;DHT22;6741;48.964;9.406;2023-05-16T00:52:19;8.70;99.90
13344;DHT22;6741;48.964;9.406;2023-05-16T00:54:46;8.50;99.90
13344;DHT22;6741;48.964;9.406;2023-05-16T00:57:14;8.40;99.90
13344;DHT22;6741;48.964;9.406;2023-05-16T00:59:43;8.40;99.90
13344;DHT22;6741;48.964;9.406;2023-05-16T01:02:10;8.50;99.90
13344;DHT22;6741;48.964;9.406;2023-05-16T01:04:38;8.50;99.90
13344;DHT22;6741;48.964;9.406;2023-05-16T01:07:05;8.50;99.90
13344;DHT22;6741;48.964;9.406;2023-05-16T01:09:32;8.50;99.90
13344;DHT22;6741;48.964;9.406;2023-05-16T01:12:08;8.50;99.90
13344;DHT22;6741;48.964;9.406;2023-05-16T01:14:45;8.50;99.90
13344;DHT22;6741;48.964;9.406;2023-05-16T01:17:21;8.50;99.90
13344;DHT22;6741;48.964;9.406;2023-05-16T01:20:02;8.40;99.90
13344;DHT22;6741;48.964;9.406;2023-05-16T01:22:45;8.50;99.90
13344;DHT22;6741;48.964;9.406;2023-05-16T01:25:24;8.60;99.90
13344;DHT22;6741;48.964;9.406;2023-05-16T01:27:56;8.50;99.90
13344;DHT22;6741;48.964;9.406;2023-05-16T01:30:23;8.50;99.90
13344;DHT22;6741;48.964;9.406;2023-05-16T01:32:50;8.50;99.90
13344;DHT22;6741;48.964;9.406;2023-05-16T01:35:17;8.40;99.90
13344;DHT22;6741;48.964;9.406;2023-05-16T01:37:48;8.40;99.90
13344;DHT22;6741;48.964;9.406;2023-05-16T01:40:24;8.40;99.90
13344;DHT22;6741;48.964;9.406;2023-05-16T01:42:55;8.50;99.90
13344;DHT22;6741;48.964;9.406;2023-05-16T01:45:25;8.40;99.90
13344;DHT22;6741;48.964;9.406;2023-05-16T01:47:57;8.40;99.90
13344;DHT22;6741;48.964;9.406;2023-05-16T01:50:28;8.40;99.90
13344;DHT22;6741;48.964;9.406;2023-05-16T01:52:59;8.40;99.90
13344;DHT22;6741;48.964;9.406;2023-05-16T01:55:34;8.40;99.90
13344;DHT22;6741;48.964;9.406;2023-05-16T01:58:04;8.40;99.90
13344;DHT22;6741;48.964;9.406;2023-05-16T02:00:33;8.30;99.90
13344;DHT22;6741;48.964;9.406;2023-05-16T02:03:00;8.30;99.90
13344;DHT22;6741;48.964;9.406;2023-05-16T02:05:27;8.20;99.90
13344;DHT22;6741;48.964;9.406;2023-05-16T02:07:54;8.10;99.90
13344;DHT22;6741;48.964;9.406;2023-05-16T02:10:21;8.20;99.90
13344;DHT22;6741;48.964;9.406;2023-05-16T02:12:49;8.10;99.90
13344;DHT22;6741;48.964;9.406;2023-05-16T02:15:18;8.10;99.90
13344;DHT22;6741;48.964;9.406;2023-05-16T02:17:45;8.10;99.90
13344;DHT22;6741;48.964;9.406;2023-05-16T02:20:13;8.10;99.90
13344;DHT22;6741;48.964;9.406;2023-05-16T02:22:40;8.00;99.90
13344;DHT22;6741;48.964;9.406;2023-05-16T02:25:09;7.90;99.90
13344;DHT22;6741;48.964;9.406;2023-05-16T02:27:36;7.90;99.90
13344;DHT22;6741;48.964;9.406;2023-05-16T02:30:03;7.80;99.90
13344;DHT22;6741;48.964;9.406;2023-05-16T02:32:32;7.70;99.90
13344;DHT22;6741;48.964;9.406;2023-05-16T02:34:59;7.70;99.90
13344;DHT22;6741;48.964;9.406;2023-05-16T02:37:25;7.80;99.90
13344;DHT22;6741;48.964;9.406;2023-05-16T02:39:52;7.70;99.90
13344;DHT22;6741;48.964;9.406;2023-05-16T02:42:19;7.70;99.90
13344;DHT22;6741;48.964;9.406;2023-05-16T02:44:46;7.70;99.90
13344;DHT22;6741;48.964;9.406;2023-05-16T02:47:14;7.70;99.90
13344;DHT22;6741;48.964;9.406;2023-05-16T02:49:42;7.60;99.90
13344;DHT22;6741;48.964;9.406;2023-05-16T02:52:09;7.60;99.90
13344;DHT22;6741;48.964;9.406;2023-05-16T02:54:36;7.60;99.90
13344;DHT22;6741;48.964;9.406;2023-05-16T02:57:03;7.60;99.90
13344;DHT22;6741;48.964;9.406;2023-05-16T02:59:30;7.60;99.90
13344;DHT22;6741;48.964;9.406;2023-05-16T03:01:57;7.60;99.90
13344;DHT22;6741;48.964;9.406;2023-05-16T03:04:24;7.60;99.90
13344;DHT22;6741;48.964;9.406;2023-05-16T03:06:53;7.60;99.90
13344;DHT22;6741;48.964;9.406;2023-05-16T03:09:20;7.70;99.90
13344;DHT22;6741;48.964;9.406;2023-05-16T03:11:47;7.70;99.90
13344;DHT22;6741;48.964;9.406;2023-05-16T03:14:14;7.70;99.90
13344;DHT22;6741;48.964;9.406;2023-05-16T03:16:40;7.70;99.90
13344;DHT22;6741;48.964;9.406;2023-05-16T03:19:08;7.70;99.90
13344;DHT22;6741;48.964;9.406;2023-05-16T03:21:35;7.80;99.90
13344;DHT22;6741;48.964;9.406;2023-05-16T03:24:04;7.80;99.90
13344;DHT22;6741;48.964;9.406;2023-05-16T03:26:31;7.80;99.90
13344;DHT22;6741;48.964;9.406;2023-05-16T03:28:58;7.80;99.90
13344;DHT22;6741;48.964;9.406;2023-05-16T03:31:24;7.80;99.90
13344;DHT22;6741;48.964;9.406;2023-05-16T03:33:51;7.80;99.90
13344;DHT22;6741;48.964;9.406;2023-05-16T03:36:20;7.90;99.90
13344;DHT22;6741;48.964;9.406;2023-05-16T03:38:47;7.90;99.90
13344;DHT22;6741;48.964;9.406;2023-05-16T03:41:15;7.90;99.90
13344;DHT22;6741;48.964;9.406;2023-05-16T03:43:42;7.90;99.90
13344;DHT22;6741;48.964;9.406;2023-05-16T03:46:09;7.90;99.90
13344;DHT22;6741;48.964;9.406;2023-05-16T03:48:36;8.00;99.90
13344;DHT22;6741;48.964;9.406;2023-05-16T03:51:03;7.90;99.90
13344;DHT22;6741;48.964;9.406;2023-05-16T03:53:30;8.00;99.90
13344;DHT22;6741;48.964;9.406;2023-05-16T03:55:57;8.00;99.90
13344;DHT22;6741;48.964;9.406;2023-05-16T03:58:26;8.00;99.90
13344;DHT22;6741;48.964;9.406;2023-05-16T04:00:53;7.90;99.90
13344;DHT22;6741;48.964;9.406;2023-05-16T04:03:20;7.90;99.90
13344;DHT22;6741;48.964;9.406;2023-05-16T04:05:53;7.90;99.90
13344;DHT22;6741;48.964;9.406;2023-05-16T04:08:20;7.90;99.90
13344;DHT22;6741;48.964;9.406;2023-05-16T04:10:47;7.90;99.90
13344;DHT22;6741;48.964;9.406;2023-05-16T04:13:14;7.90;99.90
13344;DHT22;6741;48.964;9.406;2023-05-16T04:15:42;7.90;99.90
13344;DHT22;6741;48.964;9.406;2023-05-16T04:18:10;7.90;99.90
13344;DHT22;6741;48.964;9.406;2023-05-16T04:20:37;7.90;99.90
13344;DHT22;6741;48.964;9.406;2023-05-16T04:23:04;7.90;99.90
13344;DHT22;6741;48.964;9.406;2023-05-16T04:25:30;8.10;99.90
13344;DHT22;6741;48.964;9.406;2023-05-16T04:27:57;8.10;99.90
13344;DHT22;6741;48.964;9.406;2023-05-16T04:30:24;8.10;99.90
13344;DHT22;6741;48.964;9.406;2023-05-16T04:32:53;8.20;99.90
13344;DHT22;6741;48.964;9.406;2023-05-16T04:35:19;8.20;99.90
13344;DHT22;6741;48.964;9.406;2023-05-16T04:37:47;8.30;99.90
13344;DHT22;6741;48.964;9.406;2023-05-16T04:40:14;8.30;99.90
13344;DHT22;6741;48.964;9.406;2023-05-16T04:42:41;8.40;99.90
13344;DHT22;6741;48.964;9.406;2023-05-16T04:45:09;8.50;99.90
13344;DHT22;6741;48.964;9.406;2023-05-16T04:47:37;8.60;99.90
13344;DHT22;6741;48.964;9.406;2023-05-16T04:50:07;8.70;99.90
13344;DHT22;6741;48.964;9.406;2023-05-16T04:52:34;8.70;99.90
13344;DHT22;6741;48.964;9.406;2023-05-16T04:55:03;8.80;99.90
13344;DHT22;6741;48.964;9.406;2023-05-16T04:57:30;8.80;99.90
13344;DHT22;6741;48.964;9.406;2023-05-16T04:59:57;8.90;99.90
13344;DHT22;6741;48.964;9.406;2023-05-16T05:02:24;9.00;99.90
13344;DHT22;6741;48.964;9.406;2023-05-16T05:04:51;9.10;99.90
13344;DHT22;6741;48.964;9.406;2023-05-16T05:07:20;9.10;99.90
13344;DHT22;6741;48.964;9.406;2023-05-16T05:09:47;9.10;99.90
13344;DHT22;6741;48.964;9.406;2023-05-16T05:12:14;9.10;99.90
13344;DHT22;6741;48.964;9.406;2023-05-16T05:14:41;9.10;99.90
13344;DHT22;6741;48.964;9.406;2023-05-16T05:17:08;9.20;99.90
13344;DHT22;6741;48.964;9.406;2023-05-16T05:19:35;9.30;99.90
13344;DHT22;6741;48.964;9.406;2023-05-16T05:22:02;9.30;99.90
13344;DHT22;6741;48.964;9.406;2023-05-16T05:24:30;9.40;99.90
13344;DHT22;6741;48.964;9.406;2023-05-16T05:26:57;9.50;99.90
13344;DHT22;6741;48.964;9.406;2023-05-16T05:29:24;9.70;99.90
13344;DHT22;6741;48.964;9.406;2023-05-16T05:31:51;9.80;99.90
13344;DHT22;6741;48.964;9.406;2023-05-16T05:34:18;9.80;99.90
13344;DHT22;6741;48.964;9.406;2023-05-16T05:36:45;9.60;99.90
13344;DHT22;6741;48.964;9.406;2023-05-16T05:39:12;9.70;99.90
13344;DHT22;6741;48.964;9.406;2023-05-16T05:41:41;9.70;99.90
13344;DHT22;6741;48.964;9.406;2023-05-16T05:44:08;9.80;99.90
13344;DHT22;6741;48.964;9.406;2023-05-16T05:46:35;9.90;99.90
13344;DHT22;6741;48.964;9.406;2023-05-16T05:49:02;10.10;99.90
13344;DHT22;6741;48.964;9.406;2023-05-16T05:51:29;10.30;99.90
13344;DHT22;6741;48.964;9.406;2023-05-16T05:53:56;10.50;99.90
13344;DHT22;6741;48.964;9.406;2023-05-16T05:56:23;10.80;99.90
13344;DHT22;6741;48.964;9.406;2023-05-16T05:58:51;11.10;99.90
13344;DHT22;6741;48.964;9.406;2023-05-16T06:01:18;11.30;99.90
13344;DHT22;6741;48.964;9.406;2023-05-16T06:03:46;11.50;99.90
13344;DHT22;6741;48.964;9.406;2023-05-16T06:06:13;11.70;99.90
13344;DHT22;6741;48.964;9.406;2023-05-16T06:08:40;11.90;99.90
13344;DHT22;6741;48.964;9.406;2023-05-16T06:11:07;12.00;99.90
13344;DHT22;6741;48.964;9.406;2023-05-16T06:13:34;12.10;99.90
13344;DHT22;6741;48.964;9.406;2023-05-16T06:16:03;12.10;99.90
13344;DHT22;6741;48.964;9.406;2023-05-16T06:18:30;12.20;99.90
13344;DHT22;6741;48.964;9.406;2023-05-16T06:20:57;12.40;99.90
13344;DHT22;6741;48.964;9.406;2023-05-16T06:23:24;12.60;99.90
13344;DHT22;6741;48.964;9.406;2023-05-16T06:25:51;12.80;99.90
13344;DHT22;6741;48.964;9.406;2023-05-16T06:28:18;12.90;99.90
13344;DHT22;6741;48.964;9.406;2023-05-16T06:30:45;12.90;99.90
13344;DHT22;6741;48.964;9.406;2023-05-16T06:33:14;12.90;99.90
13344;DHT22;6741;48.964;9.406;2023-05-16T06:35:41;12.80;99.90
13344;DHT22;6741;48.964;9.406;2023-05-16T06:38:08;12.90;99.90
13344;DHT22;6741;48.964;9.406;2023-05-16T06:40:35;12.90;99.90
13344;DHT22;6741;48.964;9.406;2023-05-16T06:43:02;12.90;99.90
13344;DHT22;6741;48.964;9.406;2023-05-16T06:45:29;12.80;99.90
13344;DHT22;6741;48.964;9.406;2023-05-16T06:47:56;12.70;99.90
13344;DHT22;6741;48.964;9.406;2023-05-16T06:50:24;12.50;99.90
13344;DHT22;6741;48.964;9.406;2023-05-16T06:52:51;12.50;99.90
13344;DHT22;6741;48.964;9.406;2023-05-16T06:55:18;12.50;99.90
13344;DHT22;6741;48.964;9.406;2023-05-16T06:57:45;12.50;99.90
13344;DHT22;6741;48.964;9.406;2023-05-16T07:00:13;12.40;99.90
13344;DHT22;6741;48.964;9.406;2023-05-16T07:02:40;12.40;99.90
13344;DHT22;6741;48.964;9.406;2023-05-16T07:05:07;12.40;99.90
13344;DHT22;6741;48.964;9.406;2023-05-16T07:07:36;12.50;99.90
13344;DHT22;6741;48.964;9.406;2023-05-16T07:10:03;12.50;99.90
13344;DHT22;6741;48.964;9.406;2023-05-16T07:12:30;12.60;99.90
13344;DHT22;6741;48.964;9.406;2023-05-16T07:14:57;12.60;99.90
13344;DHT22;6741;48.964;9.406;2023-05-16T07:17:24;12.50;99.90
13344;DHT22;6741;48.964;9.406;2023-05-16T07:19:51;12.50;99.90
13344;DHT22;6741;48.964;9.406;2023-05-16T07:22:17;12.50;99.90
13344;DHT22;6741;48.964;9.406;2023-05-16T07:24:46;12.60;99.90
13344;DHT22;6741;48.964;9.406;2023-05-16T07:27:13;12.50;99.90
13344;DHT22;6741;48.964;9.406;2023-05-16T07:29:40;12.50;99.90
13344;DHT22;6741;48.964;9.406;2023-05-16T07:32:07;12.50;99.90
13344;DHT22;6741;48.964;9.406;2023-05-16T07:34:34;12.50;99.90
13344;DHT22;6741;48.964;9.406;2023-05-16T07:37:01;12.40;99.20
13344;DHT22;6741;48.964;9.406;2023-05-16T07:39:28;12.40;99.90
13344;DHT22;6741;48.964;9.406;2023-05-16T07:41:56;12.40;99.90
13344;DHT22;6741;48.964;9.406;2023-05-16T07:44:23;12.50;99.90
13344;DHT22;6741;48.964;9.406;2023-05-16T07:46:50;12.50;96.80
13344;DHT22;6741;48.964;9.406;2023-05-16T07:49:17;12.50;70.00
13344;DHT22;6741;48.964;9.406;2023-05-16T07:51:43;12.60;95.00
13344;DHT22;6741;48.964;9.406;2023-05-16T07:54:10;12.70;96.60
13344;DHT22;6741;48.964;9.406;2023-05-16T07:56:37;12.60;74.40
13344;DHT22;6741;48.964;9.406;2023-05-16T07:59:06;12.60;74.40
13344;DHT22;6741;48.964;9.406;2023-05-16T08:01:33;12.60;69.10
13344;DHT22;6741;48.964;9.406;2023-05-16T08:04:00;12.60;88.70
13344;DHT22;6741;48.964;9.406;2023-05-16T08:06:27;12.70;82.40
13344;DHT22;6741;48.964;9.406;2023-05-16T08:08:54;12.80;91.90
13344;DHT22;6741;48.964;9.406;2023-05-16T08:11:21;12.80;98.80
13344;DHT22;6741;48.964;9.406;2023-05-16T08:13:48;12.80;99.70
13344;DHT22;6741;48.964;9.406;2023-05-16T08:16:17;12.80;99.90
13344;DHT22;6741;48.964;9.406;2023-05-16T08:18:44;12.80;99.40
13344;DHT22;6741;48.964;9.406;2023-05-16T08:21:11;12.80;99.90
13344;DHT22;6741;48.964;9.406;2023-05-16T08:23:38;12.90;99.90
13344;DHT22;6741;48.964;9.406;2023-05-16T08:26:05;12.80;99.90
13344;DHT22;6741;48.964;9.406;2023-05-16T08:28:32;12.80;99.90
13344;DHT22;6741;48.964;9.406;2023-05-16T08:30:59;12.80;99.90
13344;DHT22;6741;48.964;9.406;2023-05-16T08:33:27;12.80;99.90
13344;DHT22;6741;48.964;9.406;2023-05-16T08:35:54;12.80;99.90
13344;DHT22;6741;48.964;9.406;2023-05-16T08:38:21;12.80;99.90
13344;DHT22;6741;48.964;9.406;2023-05-16T08:40:48;12.70;99.90
13344;DHT22;6741;48.964;9.406;2023-05-16T08:43:15;12.50;99.90
13344;DHT22;6741;48.964;9.406;2023-05-16T08:45:42;12.50;99.90
13344;DHT22;6741;48.964;9.406;2023-05-16T08:48:09;12.50;99.90
13344;DHT22;6741;48.964;9.406;2023-05-16T08:50:38;12.50;99.90
13344;DHT22;6741;48.964;9.406;2023-05-16T08:53:08;12.60;99.90
13344;DHT22;6741;48.964;9.406;2023-05-16T08:55:39;12.60;99.90
13344;DHT22;6741;48.964;9.406;2023-05-16T08:58:07;12.60;99.90
13344;DHT22;6741;48.964;9.406;2023-05-16T09:00:35;12.60;99.90
13344;DHT22;6741;48.964;9.406;2023-05-16T09:03:02;12.40;99.90
13344;DHT22;6741;48.964;9.406;2023-05-16T09:05:29;12.40;99.90
13344;DHT22;6741;48.964;9.406;2023-05-16T09:07:58;12.30;99.90
13344;DHT22;6741;48.964;9.406;2023-05-16T09:10:25;12.20;99.90
13344;DHT22;6741;48.964;9.406;2023-05-16T09:12:52;12.30;99.90
13344;DHT22;6741;48.964;9.406;2023-05-16T09:15:19;12.30;99.90
13344;DHT22;6741;48.964;9.406;2023-05-16T09:17:46;12.30;99.90
13344;DHT22;6741;48.964;9.406;2023-05-16T09:20:14;12.30;99.90
13344;DHT22;6741;48.964;9.406;2023-05-16T09:22:49;12.30;99.90
13344;DHT22;6741;48.964;9.406;2023-05-16T09:25:19;12.20;99.90
13344;DHT22;6741;48.964;9.406;2023-05-16T09:27:46;12.30;99.90
13344;DHT22;6741;48.964;9.406;2023-05-16T09:30:14;12.30;99.90
13344;DHT22;6741;48.964;9.406;2023-05-16T09:32:42;12.30;99.90
13344;DHT22;6741;48.964;9.406;2023-05-16T09:35:13;12.40;99.90
13344;DHT22;6741;48.964;9.406;2023-05-16T09:37:43;12.50;99.90
13344;DHT22;6741;48.964;9.406;2023-05-16T09:40:11;12.70;99.90
13344;DHT22;6741;48.964;9.406;2023-05-16T09:42:41;12.90;99.90
13344;DHT22;6741;48.964;9.406;2023-05-16T09:45:11;12.90;99.90
13344;DHT22;6741;48.964;9.406;2023-05-16T09:47:39;13.00;99.90
13344;DHT22;6741;48.964;9.406;2023-05-16T09:50:12;13.00;99.90
13344;DHT22;6741;48.964;9.406;2023-05-16T09:52:39;12.90;99.90
13344;DHT22;6741;48.964;9.406;2023-05-16T09:55:07;12.90;99.90
13344;DHT22;6741;48.964;9.406;2023-05-16T09:57:36;12.90;99.90
13344;DHT22;6741;48.964;9.406;2023-05-16T10:00:08;13.00;99.90
13344;DHT22;6741;48.964;9.406;2023-05-16T10:02:37;13.00;99.90
13344;DHT22;6741;48.964;9.406;2023-05-16T10:05:05;12.90;99.90
13344;DHT22;6741;48.964;9.406;2023-05-16T10:07:32;12.80;99.90
13344;DHT22;6741;48.964;9.406;2023-05-16T10:10:00;12.80;99.90
13344;DHT22;6741;48.964;9.406;2023-05-16T10:12:32;12.90;99.90
13344;DHT22;6741;48.964;9.406;2023-05-16T10:15:00;12.90;99.90
13344;DHT22;6741;48.964;9.406;2023-05-16T10:17:32;12.80;99.90
13344;DHT22;6741;48.964;9.406;2023-05-16T10:20:01;12.80;99.90
13344;DHT22;6741;48.964;9.406;2023-05-16T10:22:33;12.80;99.90
13344;DHT22;6741;48.964;9.406;2023-05-16T10:25:07;12.60;99.90
13344;DHT22;6741;48.964;9.406;2023-05-16T10:27:37;12.60;99.90
13344;DHT22;6741;48.964;9.406;2023-05-16T10:30:06;12.80;99.90
13344;DHT22;6741;48.964;9.406;2023-05-16T10:32:36;13.00;99.90
13344;DHT22;6741;48.964;9.406;2023-05-16T10:35:03;13.10;99.90
13344;DHT22;6741;48.964;9.406;2023-05-16T10:37:30;13.20;99.90
13344;DHT22;6741;48.964;9.406;2023-05-16T10:39:58;13.30;99.90
13344;DHT22;6741;48.964;9.406;2023-05-16T10:42:26;13.30;99.90
13344;DHT22;6741;48.964;9.406;2023-05-16T10:44:53;13.40;99.90
13344;DHT22;6741;48.964;9.406;2023-05-16T10:47:21;13.40;99.90
13344;DHT22;6741;48.964;9.406;2023-05-16T10:49:49;13.50;99.90
13344;DHT22;6741;48.964;9.406;2023-05-16T10:52:16;13.40;99.90
13344;DHT22;6741;48.964;9.406;2023-05-16T10:54:49;13.50;99.90
13344;DHT22;6741;48.964;9.406;2023-05-16T10:57:18;13.40;99.90
13344;DHT22;6741;48.964;9.406;2023-05-16T10:59:50;13.40;99.90
13344;DHT22;6741;48.964;9.406;2023-05-16T11:02:26;13.60;99.90
13344;DHT22;6741;48.964;9.406;2023-05-16T11:04:56;13.70;99.90
13344;DHT22;6741;48.964;9.406;2023-05-16T11:07:25;13.80;95.30
13344;DHT22;6741;48.964;9.406;2023-05-16T11:10:06;13.80;99.00
13344;DHT22;6741;48.964;9.406;2023-05-16T11:12:41;13.70;99.90
13344;DHT22;6741;48.964;9.406;2023-05-16T11:15:21;13.80;99.90
13344;DHT22;6741;48.964;9.406;2023-05-16T11:17:49;14.00;90.60
13344;DHT22;6741;48.964;9.406;2023-05-16T11:20:30;14.10;89.40
13344;DHT22;6741;48.964;9.406;2023-05-16T11:23:23;14.20;99.10
13344;DHT22;6741;48.964;9.406;2023-05-16T11:25:53;14.10;91.50
13344;DHT22;6741;48.964;9.406;2023-05-16T11:28:20;14.10;97.50
13344;DHT22;6741;48.964;9.406;2023-05-16T11:30:49;14.10;97.80
13344;DHT22;6741;48.964;9.406;2023-05-16T11:33:17;13.90;97.20
13344;DHT22;6741;48.964;9.406;2023-05-16T11:35:59;13.50;99.90
13344;DHT22;6741;48.964;9.406;2023-05-16T11:38:29;13.40;99.90
13344;DHT22;6741;48.964;9.406;2023-05-16T11:41:01;13.30;99.90
13344;DHT22;6741;48.964;9.406;2023-05-16T11:43:28;12.90;99.90
13344;DHT22;6741;48.964;9.406;2023-05-16T11:45:56;12.70;99.90
13344;DHT22;6741;48.964;9.406;2023-05-16T11:48:24;12.50;99.90
13344;DHT22;6741;48.964;9.406;2023-05-16T11:50:52;12.40;99.90
13344;DHT22;6741;48.964;9.406;2023-05-16T11:53:19;12.20;99.90
13344;DHT22;6741;48.964;9.406;2023-05-16T11:55:48;12.20;99.90
13344;DHT22;6741;48.964;9.406;2023-05-16T11:58:17;12.20;99.90
13344;DHT22;6741;48.964;9.406;2023-05-16T12:00:49;12.20;99.90
13344;DHT22;6741;48.964;9.406;2023-05-16T12:03:17;12.10;99.90
13344;DHT22;6741;48.964;9.406;2023-05-16T12:05:55;12.20;99.90
13344;DHT22;6741;48.964;9.406;2023-05-16T12:08:22;12.20;99.90
13344;DHT22;6741;48.964;9.406;2023-05-16T12:10:51;12.00;99.90
13344;DHT22;6741;48.964;9.406;2023-05-16T12:13:19;12.10;99.90
13344;DHT22;6741;48.964;9.406;2023-05-16T12:15:46;12.10;99.90
13344;DHT22;6741;48.964;9.406;2023-05-16T12:18:15;12.10;99.90
13344;DHT22;6741;48.964;9.406;2023-05-16T12:20:43;12.20;99.90
13344;DHT22;6741;48.964;9.406;2023-05-16T12:23:12;12.30;99.90
13344;DHT22;6741;48.964;9.406;2023-05-16T12:25:44;12.40;99.90
13344;DHT22;6741;48.964;9.406;2023-05-16T12:28:12;12.60;99.90
13344;DHT22;6741;48.964;9.406;2023-05-16T12:30:41;12.70;99.90
13344;DHT22;6741;48.964;9.406;2023-05-16T12:33:10;12.70;99.90
13344;DHT22;6741;48.964;9.406;2023-05-16T12:35:39;12.70;99.90
13344;DHT22;6741;48.964;9.406;2023-05-16T12:38:07;12.90;99.90
13344;DHT22;6741;48.964;9.406;2023-05-16T12:40:38;13.20;99.90
13344;DHT22;6741;48.964;9.406;2023-05-16T12:43:12;13.30;99.90
13344;DHT22;6741;48.964;9.406;2023-05-16T12:45:39;13.60;82.50
13344;DHT22;6741;48.964;9.406;2023-05-16T12:48:11;13.80;65.10
13344;DHT22;6741;48.964;9.406;2023-05-16T12:50:38;13.90;32.30
13344;DHT22;6741;48.964;9.406;2023-05-16T12:53:10;13.70;14.30
13344;DHT22;6741;48.964;9.406;2023-05-16T12:55:39;13.50;41.10
13344;DHT22;6741;48.964;9.406;2023-05-16T12:58:07;13.80;20.40
13344;DHT22;6741;48.964;9.406;2023-05-16T13:00:34;13.80;23.20
13344;DHT22;6741;48.964;9.406;2023-05-16T13:03:02;14.00;7.90
13344;DHT22;6741;48.964;9.406;2023-05-16T13:05:29;14.00;1.00
13344;DHT22;6741;48.964;9.406;2023-05-16T13:07:56;13.80;2.00
13344;DHT22;6741;48.964;9.406;2023-05-16T13:10:23;13.80;40.00
13344;DHT22;6741;48.964;9.406;2023-05-16T13:12:51;13.50;26.00
13344;DHT22;6741;48.964;9.406;2023-05-16T13:15:18;13.30;34.30
13344;DHT22;6741;48.964;9.406;2023-05-16T13:17:46;13.00;62.50
13344;DHT22;6741;48.964;9.406;2023-05-16T13:20:13;12.60;91.50
13344;DHT22;6741;48.964;9.406;2023-05-16T13:22:41;12.50;99.90
13344;DHT22;6741;48.964;9.406;2023-05-16T13:25:09;12.40;97.40
13344;DHT22;6741;48.964;9.406;2023-05-16T13:27:36;12.40;99.90
13344;DHT22;6741;48.964;9.406;2023-05-16T13:30:06;12.50;99.90
13344;DHT22;6741;48.964;9.406;2023-05-16T13:32:33;12.50;99.90
13344;DHT22;6741;48.964;9.406;2023-05-16T13:35:00;12.50;99.90
13344;DHT22;6741;48.964;9.406;2023-05-16T13:37:28;12.40;99.90
13344;DHT22;6741;48.964;9.406;2023-05-16T13:39:58;12.50;99.90
13344;DHT22;6741;48.964;9.406;2023-05-16T13:42:25;12.60;99.90
13344;DHT22;6741;48.964;9.406;2023-05-16T13:44:52;12.50;96.20
13344;DHT22;6741;48.964;9.406;2023-05-16T13:47:21;12.70;96.90
13344;DHT22;6741;48.964;9.406;2023-05-16T13:49:48;12.70;78.80
13344;DHT22;6741;48.964;9.406;2023-05-16T13:52:15;12.80;90.90
13344;DHT22;6741;48.964;9.406;2023-05-16T13:54:42;12.90;78.30
13344;DHT22;6741;48.964;9.406;2023-05-16T13:57:09;12.90;64.40
13344;DHT22;6741;48.964;9.406;2023-05-16T13:59:36;12.90;46.20
13344;DHT22;6741;48.964;9.406;2023-05-16T14:02:03;12.80;41.20
13344;DHT22;6741;48.964;9.406;2023-05-16T14:04:31;12.70;44.30
13344;DHT22;6741;48.964;9.406;2023-05-16T14:06:58;12.70;74.10
13344;DHT22;6741;48.964;9.406;2023-05-16T14:09:25;12.90;82.50
13344;DHT22;6741;48.964;9.406;2023-05-16T14:11:52;13.00;40.60
13344;DHT22;6741;48.964;9.406;2023-05-16T14:14:19;13.10;51.30
13344;DHT22;6741;48.964;9.406;2023-05-16T14:16:46;13.20;51.80
13344;DHT22;6741;48.964;9.406;2023-05-16T14:19:12;13.20;37.10
13344;DHT22;6741;48.964;9.406;2023-05-16T14:21:41;13.40;16.30
13344;DHT22;6741;48.964;9.406;2023-05-16T14:24:08;13.40;11.30
13344;DHT22;6741;48.964;9.406;2023-05-16T14:26:34;13.40;1.00
13344;DHT22;6741;48.964;9.406;2023-05-16T14:29:01;13.50;10.50
13344;DHT22;6741;48.964;9.406;2023-05-16T14:31:28;13.70;1.00
13344;DHT22;6741;48.964;9.406;2023-05-16T14:33:55;13.80;3.70
13344;DHT22;6741;48.964;9.406;2023-05-16T14:36:23;13.70;1.00
13344;DHT22;6741;48.964;9.406;2023-05-16T14:38:51;13.70;1.00
13344;DHT22;6741;48.964;9.406;2023-05-16T14:41:18;13.40;1.00
13344;DHT22;6741;48.964;9.406;2023-05-16T14:43:46;13.00;16.00
13344;DHT22;6741;48.964;9.406;2023-05-16T14:46:12;12.80;1.00
13344;DHT22;6741;48.964;9.406;2023-05-16T14:48:39;12.50;7.30
13344;DHT22;6741;48.964;9.406;2023-05-16T14:51:07;12.50;27.00
13344;DHT22;6741;48.964;9.406;2023-05-16T14:53:33;12.50;32.00
13344;DHT22;6741;48.964;9.406;2023-05-16T14:56:03;12.50;37.90
13344;DHT22;6741;48.964;9.406;2023-05-16T14:58:30;12.40;36.90
13344;DHT22;6741;48.964;9.406;2023-05-16T15:00:57;12.40;36.30
13344;DHT22;6741;48.964;9.406;2023-05-16T15:03:24;12.50;25.80
13344;DHT22;6741;48.964;9.406;2023-05-16T15:05:51;12.50;14.80
13344;DHT22;6741;48.964;9.406;2023-05-16T15:08:19;12.60;4.20
13344;DHT22;6741;48.964;9.406;2023-05-16T15:10:46;12.70;1.00
13344;DHT22;6741;48.964;9.406;2023-05-16T15:13:15;12.80;1.00
13344;DHT22;6741;48.964;9.406;2023-05-16T15:15:42;12.90;1.00
13344;DHT22;6741;48.964;9.406;2023-05-16T15:18:09;13.00;1.00
13344;DHT22;6741;48.964;9.406;2023-05-16T15:20:36;13.20;1.00
13344;DHT22;6741;48.964;9.406;2023-05-16T15:23:03;13.30;1.00
13344;DHT22;6741;48.964;9.406;2023-05-16T15:25:30;13.40;1.00
13344;DHT22;6741;48.964;9.406;2023-05-16T15:27:57;13.20;99.90
13344;DHT22;6741;48.964;9.406;2023-05-16T15:30:25;13.30;99.90
13344;DHT22;6741;48.964;9.406;2023-05-16T15:32:53;13.40;1.00
13344;DHT22;6741;48.964;9.406;2023-05-16T15:35:21;13.50;1.00
13344;DHT22;6741;48.964;9.406;2023-05-16T15:37:48;13.50;99.90
13344;DHT22;6741;48.964;9.406;2023-05-16T15:40:15;13.50;1.00
13344;DHT22;6741;48.964;9.406;2023-05-16T15:42:43;13.50;1.00
13344;DHT22;6741;48.964;9.406;2023-05-16T15:45:10;13.60;39.90
13344;DHT22;6741;48.964;9.406;2023-05-16T15:47:40;13.50;99.90
13344;DHT22;6741;48.964;9.406;2023-05-16T15:50:07;13.70;99.90
13344;DHT22;6741;48.964;9.406;2023-05-16T15:52:34;13.60;99.90
13344;DHT22;6741;48.964;9.406;2023-05-16T15:55:02;13.60;99.90
13344;DHT22;6741;48.964;9.406;2023-05-16T15:57:29;13.30;1.00